Tiempo atmosférico en la estación meteorológica de Toledo, Toledo (515 m.)



Fecha
DESCASC
Temp. máxima en grados centígrados (hora)
DESCASC
Temp. mínima en grados centígrados (hora)
DESCASC
Temp. media en grados centígrados
DESCASC
Racha de viento máxima en m/sg (hora)
DESCASC
Velocidad máxima media en intervalos de 10 minutos(hora)
DESCASC
Precipitaciones diarias en mm
DESCASC
Precipitaciones de 00:00 a 06:00 en mm
DESCASC
Precipitaciones de 06:00 a 12:00 en mm
DESCASC
Precipitaciones de 12:00 a 18:00 en mm
DESCASC
Precipitaciones de 18:00 a 24:00 en mm
DESCASC
16-06-2019 32.2 (18:20) 11.8 (07:10) 22 7.5 (20:50) 5 (20:50) 0 0 0 0 0
15-06-2019 27.4 (19:40) 10.9 (07:20) 19.1 8.89 (02:30) 6.11 (02:10) 0 0 0 0 0
14-06-2019 25.6 (16:30) 14.3 (07:20) 20 14.17 (13:20) 8.61 (12:50) 0 0 0 0 0
13-06-2019 31 (17:30) 12.5 (00:00) 21.8 11.94 (18:30) 7.5 (20:30) 0 0 0 0 0
12-06-2019 28.2 (18:00) 9.6 (00:00) 18.9 8.89 (18:30) 5 (08:40) 0 0 0 0 0
11-06-2019 23.6 (18:50) 15.2 (00:00) 19.4 13.06 (10:00) 8.61 (09:50) 0 0 0 0 0
10-06-2019 28.3 (18:00) 13.7 (00:00) 21 12.22 (15:50) 6.11 (15:40) 0 0 0 0 0
09-06-2019 28.4 (17:20) 14.5 (00:00) 21.4 12.5 (17:30) 8.06 (19:50) 0 0 0 0 0
08-06-2019 31.7 (17:40) 10 (00:00) 20.9 12.5 (16:10) 7.5 (17:10) 0 0 0 0 0
07-06-2019 24 (18:20) 10.9 (00:00) 17.4 13.33 (03:50) 8.61 (04:00) 0 0 0 0 0
06-06-2019 26.1 (17:40) 11.2 (00:00) 18.7 14.17 (17:10) 8.61 (17:10) 0 0 0 0 0
05-06-2019 23.3 (17:30) 12.4 (00:00) 17.8 13.61 (08:10) 8.61 (08:10) 0 0 0 0 0
04-06-2019 30.4 (17:40) 18.7 (00:00) 24.6 15.28 (16:50) 8.89 (16:30) 0 0 0 0 0
03-06-2019 35.5 (16:50) 19.8 (00:00) 27.6 13.33 (15:40) 8.61 (16:20) 0 0 0 0 0
02-06-2019 36.3 (17:40) 16.9 (00:00) 26.6 8.61 (16:00) 6.11 (21:20) 0 0 0 0 0
01-06-2019 35 (16:40) 15.8 (00:00) 25.4 8.89 (02:50) 6.11 (04:20) 0 0 0 0 0
31-05-2019 33.4 (19:10) 16.1 (00:00) 24.8 9.72 (05:30) 6.39 (05:30) 0 0 0 0 0
30-05-2019 31.4 (18:20) 13.5 (00:00) 22.4 11.11 (13:40) 5.28 (13:40) 0 0 0 0 0
29-05-2019 28.8 (19:10) 11.8 (00:00) 20.3 13.89 (19:10) 6.11 (02:50) 0 0 0 0 0
28-05-2019 29.5 (16:40) 14.5 (00:00) 22 12.22 (17:20) 7.78 (19:50) 0 0 0 0 0
27-05-2019 32.4 (17:30) 13.8 (00:00) 23.1 10.28 (15:30) 5.83 (20:20) 0 0 0 0 0
26-05-2019 29.7 (18:50) 10.9 (00:00) 20.3 8.61 (22:40) 6.39 (23:30) 0 0 0 0 0
25-05-2019 26.8 (18:10) 10.7 (00:00) 18.7 14.72 (16:00) 7.22 (23:00) 0 0 0 0 0
24-05-2019 26.9 (15:30) 16.7 (00:00) 21.8 12.22 (20:50) 8.06 (21:20) 0 0 0 0 0
23-05-2019 30.8 (18:00) 14.7 (00:00) 22.7 11.39 (18:10) 7.22 (18:10) 0 0 0 0 0
22-05-2019 30.4 (17:40) 12.5 (00:00) 21.4 9.44 (18:10) 6.11 (18:10) 0 0 0 0 0

Gráficas

Temp. máximas Temp. mínimas Temp. medias Precipitaciones Rachas de viento máximas Velocidades máximas media en intervalos de 10 minutos

Datos horarios

Fecha y hora oficial Temperatura (ºC) Velocidad del viento (km/h) Dirección del viento Racha (km/h) Dirección de racha Precipitación (mm) Presión (hPa) Tendencia (hPa) Humedad (%)
2019-06-20 23:00:00 24.1 16 Oeste 27 Noroeste 0 953.1 1.4 37
2019-06-20 22:00:00 25.2 19 Noroeste 35 Oeste 0 952.3 0.6 35
2019-06-20 21:00:00 26.8 21 Oeste 38 Noroeste 0 951.9 0.1 33
2019-06-20 20:00:00 28.1 22 Oeste 33 Oeste 0 951.7 -0.6 30
2019-06-20 19:00:00 28.7 18 Oeste 35 Oeste 0 951.7 -1.2 30
2019-06-20 18:00:00 29.7 19 Oeste 32 Oeste 0 951.8 -1.5 27
2019-06-20 17:00:00 28.9 21 Oeste 35 Oeste 0 952.3 -1.6 28
2019-06-20 16:00:00 27.7 17 Noroeste 39 Noroeste 0 952.9 -1.4 32
2019-06-20 15:00:00 28.5 13 Oeste 35 Noroeste 0 953.3 -1.2 31
2019-06-20 14:00:00 28.7 17 Noroeste 32 Oeste 0 953.9 -0.7 31
2019-06-20 13:00:00 27.4 13 Noroeste 31 Oeste 0 954.3 -0.4 33
2019-06-20 12:00:00 26 13 Noroeste 24 Sudoeste 0 954.5 -0.4 39
2019-06-20 11:00:00 24.5 13 Oeste 27 Oeste 0 954.6 -0.3 44
2019-06-20 10:00:00 22.1 13 Oeste 23 Oeste 0 954.7 0.1 51
2019-06-20 09:00:00 20.5 12 Oeste 20 Oeste 0 954.9 0.4 57
2019-06-20 08:00:00 17.6 5 Noroeste 9 Noroeste 0 954.9 0.4 64
2019-06-20 07:00:00 16.3 7 Noroeste 11 Noroeste 0 954.6 -0.1 65
2019-06-20 06:00:00 17 6 Oeste 8 Oeste 0 954.5 -0.4 62
2019-06-20 05:00:00 17.5 5 Oeste 10 Noroeste 0 954.5 -0.5 60
2019-06-20 04:00:00 18 5 Oeste 9 Oeste 0 954.7 -0.3 58
2019-06-20 03:00:00 18.6 4 Oeste 11 Sudoeste 0 954.9 -0.1 56
2019-06-20 02:00:00 19.2 5 Sudoeste 13 Oeste 0 955 0 54
2019-06-20 01:00:00 20.1 7 Sudoeste 15 Oeste 0 955 0.3 50
2019-06-20 00:00:00 21.6 11 Oeste 19 Oeste 0 955 0.5 44
2019-06-19 23:00:00 22.5 14 Oeste 25 Oeste 0 955 0.8 42
2019-06-19 22:00:00 23.5 18 Oeste 32 Noroeste 0 954.7 0.6 40
2019-06-19 21:00:00 24.8 23 Oeste 37 Noroeste 0 954.5 0.1 37
2019-06-19 20:00:00 26.5 21 Oeste 40 Oeste 0 954.2 -0.6 34
2019-06-19 19:00:00 27.2 26 Oeste 40 Oeste 0 954.1 -1.1 34
2019-06-19 18:00:00 28.1 21 Oeste 37 Oeste 0 954.4 -1.1 34
2019-06-19 17:00:00 27.7 21 Oeste 42 Oeste 0 954.8 -1.1 35
2019-06-19 16:00:00 27.3 25 Oeste 37 Noroeste 0 955.2 -1 36
2019-06-19 15:00:00 26.8 19 Oeste 36 Oeste 0 955.5 -0.6 36
2019-06-19 14:00:00 26 17 Oeste 35 Oeste 0 955.9 -0.3 37
2019-06-19 13:00:00 24.9 18 Noroeste 35 Noroeste 0 956.2 -0.1 40
2019-06-19 12:00:00 23.5 14 Oeste 32 Oeste 0 956.1 -0.1 44
2019-06-19 11:00:00 22.3 17 Noroeste 25 Oeste 0 956.2 0.1 48
2019-06-19 10:00:00 20.7 18 Oeste 27 Oeste 0 956.3 0.5 54
2019-06-19 09:00:00 19 17 Oeste 28 Oeste 0 956.2 0.8 58
2019-06-19 08:00:00 17.7 14 Oeste 22 Oeste 0 956.1 0.9 61
2019-06-19 07:00:00 17.1 5 Oeste 11 Sudoeste 0 955.8 0.8 62
2019-06-19 06:00:00 18 8 Oeste 23 Oeste 0 955.4 0.4 59
2019-06-19 05:00:00 19 13 Noroeste 32 Oeste 0 955.2 0.2 58
2019-06-19 04:00:00 19.8 14 Oeste 26 Oeste 0 955 -0.1 62
2019-06-19 03:00:00 20.5 13 Noroeste 20 Noroeste 0 955 -0.1 58
2019-06-19 02:00:00 21.1 11 Oeste 17 Noroeste 0 955 0.3 53
2019-06-19 01:00:00 21.9 9 Noroeste 18 Oeste 0 955.1 1.1 46
2019-06-19 00:00:00 23.2 11 Noroeste 25 Oeste 0 955.1 1.4 41
2019-06-18 23:00:00 23.7 9 Noroeste 24 Noroeste 0 954.7 1.6 40
2019-06-18 22:00:00 24.8 15 Noroeste 43 Noroeste 0 954 1.3 38
2019-06-18 21:00:00 27.5 25 Oeste 48 Oeste 0 953.7 1 31
2019-06-18 20:00:00 29.2 30 Oeste 49 Oeste 0 953.1 0.2 18
2019-06-18 19:00:00 30.6 30 Oeste 47 Oeste 0 952.7 -0.7 9
2019-06-18 18:00:00 31.5 26 Oeste 53 Oeste 0 952.7 -0.9 9
2019-06-18 17:00:00 31.6 25 Oeste 53 Oeste 0 952.9 -1.3 12
2019-06-18 16:00:00 31.8 19 Sudoeste 45 Oeste 0 953.4 -1.2 13
2019-06-18 15:00:00 31.4 18 Sudoeste 37 Oeste 0 953.6 -1.3 14
2019-06-18 14:00:00 30.2 18 Sudoeste 38 Oeste 0 954.2 -0.7 17
2019-06-18 13:00:00 28.8 22 Oeste 36 Oeste 0 954.6 -0.5 16
2019-06-18 12:00:00 27.7 20 Oeste 37 Oeste 0 954.9 -0.2 13
2019-06-18 11:00:00 26.5 17 Sudoeste 30 Sudoeste 0 954.9 0.3 16
2019-06-18 10:00:00 25 12 Noroeste 34 Oeste 0 955.1 1 20
2019-06-18 09:00:00 23.5 14 Sudoeste 28 Oeste 0 955.1 1.3 14
2019-06-18 08:00:00 21.6 12 Oeste 19 Oeste 0 954.6 0.8 25
2019-06-18 07:00:00 20.8 5 Oeste 25 Oeste 0 954.1 0.4 26
2019-06-18 06:00:00 22 14 Sudoeste 26 Sudoeste 0 953.8 -0.1 24
2019-06-18 05:00:00 23.2 9 Sudoeste 21 Noroeste 0 953.8 -0.5 22
2019-06-18 04:00:00 24.1 10 Noroeste 19 Noroeste 0 953.7 -0.6 18
2019-06-18 03:00:00 24.4 5 Oeste 11 Sudoeste 0 953.9 -0.1 20
2019-06-18 02:00:00 24.8 2 Sudoeste 5 Oeste 0 954.3 0.6 22
2019-06-18 01:00:00 25.4 4 Oeste 10 Oeste 0 954.3 1.2 21
2019-06-18 00:00:00 26.6 6 Oeste 18 Oeste 0 954 1 20
2019-06-17 23:00:00 27.7 8 Oeste 13 Oeste 0 953.7 0.8 17
2019-06-17 22:00:00 29 5 Oeste 17 Oeste 0 953.1 0.2 17
2019-06-17 21:00:00 30.6 15 Oeste 24 Oeste 0 953 -0.6 15
2019-06-17 20:00:00 32.5 13 Sudoeste 27 Oeste 0 952.9 -1 14
2019-06-17 19:00:00 32.9 11 Sudoeste 30 Sur 0 952.9 -1.6 13
2019-06-17 18:00:00 33.5 18 Oeste 30 Sudoeste 0 953.6 -1.6 13
2019-06-17 17:00:00 33.7 22 Sur 32 Sur 0 953.9 -2.4 11
2019-06-17 16:00:00 32.9 12 Sudoeste 30 Sur 0 954.5 -2.6 12
2019-06-17 15:00:00 32.3 15 Oeste 27 Sudoeste 0 955.2 -2.3 13
2019-06-17 14:00:00 30.4 9 Sudoeste 31 Oeste 0 956.3 -1.4 18
2019-06-17 13:00:00 29 12 Noroeste 24 Oeste 0 957.1 -0.8 20
2019-06-17 12:00:00 27.3 9 Noroeste 16 Oeste 0 957.5 -0.3 23
2019-06-17 11:00:00 25.1 9 Oeste 17 Noroeste 0 957.7 0.1 26
2019-06-17 10:00:00 22.6 4 Sur 8 Sur 0 957.9 0.8 29
2019-06-17 09:00:00 19.4 4 Sudeste 7 Sudeste 0 957.8 0.9 34
2019-06-17 08:00:00 16.2 0 Calma 4 Sur 0 957.6 0.8 38
2019-06-17 07:00:00 15.6 3 Sur 5 Sur 0 957.1 0.3 38
2019-06-17 06:00:00 17.3 0 Calma 6 Noroeste 0 956.9 0.1 33
2019-06-17 05:00:00 18.1 4 Oeste 13 Oeste 0 956.8 -0.1 33
2019-06-17 04:00:00 19.4 4 Oeste 5 Oeste 0 956.8 -0.3 30
2019-06-17 03:00:00 19.3 2 Sur 7 Este 0 956.8 -0.2 31
2019-06-17 02:00:00 20.8 2 Nordeste 5 Noroeste 0 956.9 0.1 29
2019-06-17 01:00:00 21.6 2 Oeste 4 Oeste 0 957.1 1 26
2019-06-17 00:00:00 22.8 4 Noroeste 9 Noroeste 0 957 1.4 24
2019-06-16 23:00:00 24.3 7 Oeste 14 Noroeste 0 956.8 1.4 22
2019-06-16 22:00:00 26.1 9 Norte 23 Noroeste 0 956.1 0.9 19
2019-06-16 21:00:00 28.4 14 Noroeste 27 Noroeste 0 955.6 0.2 17
2019-06-16 20:00:00 30.7 5 Sudoeste 19 Noroeste 0 955.4 -0.4 14
2019-06-16 19:00:00 31.5 13 Noroeste 19 Noroeste 0 955.2 -1.2 14
2019-06-16 18:00:00 31.7 6 Noroeste 21 Oeste 0 955.4 -1.7 13
2019-06-16 17:00:00 31 9 Noroeste 22 Norte 0 955.8 -2.1 15
2019-06-16 16:00:00 29.9 10 Este 18 Sudeste 0 956.4 -1.9 17
2019-06-16 15:00:00 30.8 7 Este 21 Sur 0 957.1 -1.5 17
2019-06-16 14:00:00 28.5 8 Oeste 18 Sudeste 0 957.9 -0.8 19
2019-06-16 13:00:00 27.4 10 Este 22 Este 0 958.3 -0.7 24
2019-06-16 12:00:00 24.7 14 Este 24 Este 0 958.6 -0.3 27
2019-06-16 11:00:00 23.4 14 Este 24 Este 0 958.7 0 29
2019-06-16 10:00:00 19.5 14 Sudeste 22 Sudeste 0 959 0.9 29
2019-06-16 09:00:00 17 10 Este 18 Este 0 958.9 1 31
2019-06-16 08:00:00 12.9 13 Este 19 Sudeste 0 958.7 0.9 40
2019-06-16 07:00:00 11.9 6 Este 8 Este 0 958.1 0.1 42
2019-06-16 06:00:00 13.3 4 Sudeste 6 Sudeste 0 957.9 -0.4 40
2019-06-16 05:00:00 14.5 5 Este 10 Este 0 957.8 -0.7 38
2019-06-16 04:00:00 16.2 2 Noroeste 6 Este 0 958 -1 34
2019-06-16 03:00:00 16.7 4 Este 6 Sudoeste 0 958.3 -0.4 32
2019-06-16 02:00:00 18.1 5 Oeste 6 Sudoeste 0 958.5 0.1 30
2019-06-16 01:00:00 18.7 3 Sudoeste 4 Sudoeste 0 959 1.3 28
2019-06-16 00:00:00 20.2 0 Calma 9 Sudeste 0 958.7 1.3 24
2019-06-15 23:00:00 21.4 3 Norte 10 Norte 0 958.4 1.1 22
2019-06-15 22:00:00 23.1 6 Noroeste 14 Oeste 0 957.7 0.4 20
2019-06-15 21:00:00 26.1 9 Noroeste 23 Noroeste 0 957.4 -0.2 19
2019-06-15 20:00:00 26.7 14 Noroeste 24 Noroeste 0 957.3 -0.7 18
2019-06-15 19:00:00 26.9 13 Noroeste 29 Noroeste 0 957.3 -1.1 18
2019-06-15 18:00:00 26.8 14 Noroeste 27 Noroeste 0 957.6 -1.2 18
2019-06-15 17:00:00 26.5 10 Sudoeste 28 Oeste 0 958 -1.2 17
2019-06-15 16:00:00 25.3 13 Oeste 31 Noroeste 0 958.4 -1.4 19
2019-06-15 15:00:00 24.5 8 Noroeste 28 Noroeste 0 958.8 -1.2 21
2019-06-15 14:00:00 23.2 17 Noroeste 26 Noroeste 0 959.2 -0.8 26
2019-06-15 13:00:00 21.7 8 Norte 23 Oeste 0 959.8 -0.2 30
2019-06-15 12:00:00 20 9 Oeste 22 Noroeste 0 960 0.4 36
2019-06-15 11:00:00 18.9 9 Sudoeste 17 Sur 0 960 0.7 41
2019-06-15 10:00:00 16.7 8 Noroeste 18 Oeste 0 960 1 48
2019-06-15 09:00:00 14.8 12 Oeste 19 Oeste 0 959.6 1.1 56
2019-06-15 08:00:00 12.6 3 Noroeste 6 Oeste 0 959.3 1 62
2019-06-15 07:00:00 11 3 Oeste 8 Sudoeste 0 959 0.9 67
2019-06-15 06:00:00 11.7 5 Sur 13 Noroeste 0 958.5 0.4 65
2019-06-15 05:00:00 12.6 8 Noroeste 14 Oeste 0 958.3 0.4 60
2019-06-15 04:00:00 13.3 5 Noroeste 17 Oeste 0 958.1 0.3 56
2019-06-15 03:00:00 14.5 12 Oeste 32 Oeste 0 958.1 0.9 51
2019-06-15 02:00:00 15.3 19 Oeste 29 Oeste 0 957.9 1.3 46
2019-06-15 01:00:00 16.2 16 Oeste 31 Oeste 0 957.8 2.3 41
2019-06-15 00:00:00 17.2 18 Oeste 32 Oeste 0 957.2 2.6 37
2019-06-14 23:00:00 18.6 22 Oeste 34 Oeste 0 956.6 2.5 35
2019-06-14 22:00:00 19.9 22 Oeste 39 Sudoeste 0 955.5 2 34
2019-06-14 21:00:00 21.2 17 Sudoeste 37 Oeste 0 954.6 1.2 29
2019-06-14 20:00:00 23.4 17 Sudoeste 44 Oeste 0 954.1 0.9 20
2019-06-14 19:00:00 24.4 22 Oeste 43 Oeste 0 953.5 0.1 21
2019-06-14 18:00:00 24.7 27 Oeste 50 Noroeste 0 953.4 0.2 19
2019-06-14 17:00:00 25.1 26 Oeste 43 Oeste 0 953.2 -0.1 20
2019-06-14 16:00:00 25.3 23 Oeste 50 Oeste 0 953.4 0.5 20
2019-06-14 15:00:00 24.9 25 Oeste 48 Noroeste 0 953.2 0.5 21
2019-06-14 14:00:00 24.6 26 Oeste 51 Oeste 0 953.3 0.4 22
2019-06-14 13:00:00 23.6 22 Oeste 46 Oeste 0 952.9 -0.2 25
2019-06-14 12:00:00 23 18 Oeste 40 Noroeste 0 952.7 -0.2 29
2019-06-14 11:00:00 21.1 14 Noroeste 26 Oeste 0 952.9 0.7 31
2019-06-14 10:00:00 19 11 Oeste 23 Oeste 0 953.1 1.3 37
2019-06-14 09:00:00 16.9 12 Oeste 21 Oeste 0 952.9 1.6 43
2019-06-14 08:00:00 14.9 10 Oeste 18 Oeste 0 952.2 1.2 49
2019-06-14 07:00:00 14.5 13 Oeste 21 Oeste 0 951.8 1 45
2019-06-14 06:00:00 15.8 12 Oeste 19 Oeste 0 951.3 0.6 36
2019-06-14 05:00:00 16.3 10 Oeste 18 Oeste 0 951 0.2 33
2019-06-14 04:00:00 16.8 8 Oeste 15 Oeste 0 950.8 -0.3 26
2019-06-14 03:00:00 18.3 4 Oeste 9 Noroeste 0 950.7 0.1 24
2019-06-14 02:00:00 19.4 3 Sur 7 Sudeste 0 950.8 1 24
2019-06-14 01:00:00 20.3 5 Sudeste 11 Sudeste 0 951.1 2.2 22
2019-06-14 00:00:00 21.4 4 Noroeste 16 Noroeste 0 950.6 2.2 20
2019-06-13 23:00:00 22.7 12 Noroeste 20 Noroeste 0 949.8 1.9 18
2019-06-13 22:00:00 24 16 Noroeste 39 Noroeste 0 948.9 1.1 19
2019-06-13 21:00:00 26.2 25 Noroeste 40 Noroeste 0 948.4 0.5 18
2019-06-13 20:00:00 28.8 21 Oeste 39 Oeste 0 947.9 -0.4 15
2019-06-13 19:00:00 28.9 21 Oeste 43 Oeste 0 947.8 -1.1 15
2019-06-13 18:00:00 30.4 15 Oeste 41 Oeste 0 947.9 -1.3 16
2019-06-13 17:00:00 30 16 Oeste 35 Oeste 0 948.3 -1.5 15
2019-06-13 16:00:00 29.2 22 Oeste 35 Oeste 0 948.9 -1.5 17
2019-06-13 15:00:00 28.6 11 Sudoeste 36 Sur 0 949.2 -1.7 17
2019-06-13 14:00:00 27.6 9 Oeste 32 Sudoeste 0 949.8 -1.3 20
2019-06-13 13:00:00 26.3 11 Este 21 Este 0 950.4 -0.9 22
2019-06-13 12:00:00 24.4 5 Oeste 13 Sudeste 0 950.9 0 26
2019-06-13 11:00:00 22.1 7 Sudeste 12 Sudeste 0 951.1 0.5 31
2019-06-13 10:00:00 20.4 5 Sur 9 Sur 0 951.3 1 34
2019-06-13 09:00:00 17.8 4 Sudeste 9 Sudeste 0 950.9 0.9 54
2019-06-13 08:00:00 14.2 3 Sudeste 9 Este 0 950.6 0.8 68
2019-06-13 07:00:00 12.5 4 Este 10 Sudeste 0 950.3 0.9 73
2019-06-13 06:00:00 13.9 6 Este 9 Este 0 950 0.4 65
2019-06-13 05:00:00 15.7 7 Sudeste 16 Este 0 949.8 0.2 60
2019-06-13 04:00:00 15.9 12 Este 16 Sudeste 0 949.4 -0.5 44
2019-06-13 03:00:00 16 2 Norte 18 Este 0 949.6 -0.2 22
2019-06-13 02:00:00 17.7 6 Este 7 Este 0 949.6 -0.2 19
2019-06-13 01:00:00 18.6 0 Calma 5 Este 0 949.9 0.4 17
2019-06-13 00:00:00 19.8 0 Calma 6 Sur 0 949.8 0.6 16
2019-06-12 23:00:00 21.2 0 Calma 14 Oeste 0 949.8 0.7 18
2019-06-12 22:00:00 23.2 7 Oeste 29 Oeste 0 949.5 0.3 15
2019-06-12 21:00:00 26.3 15 Oeste 31 Oeste 0 949.2 -0.5 13
2019-06-12 20:00:00 27.9 7 Sudoeste 26 Oeste 0 949.1 -1.1 12
2019-06-12 19:00:00 27.5 7 Norte 32 Oeste 0 949.2 -1.7 13
2019-06-12 18:00:00 28.2 9 Noroeste 25 Este 0 949.7 -2.1 13
2019-06-12 17:00:00 27.4 8 Norte 30 Noroeste 0 950.2 -2.3 13
2019-06-12 16:00:00 26.4 7 Este 25 Noroeste 0 950.9 -2.2 14
2019-06-12 15:00:00 25.6 11 Oeste 24 Oeste 0 951.8 -1.9 14
2019-06-12 14:00:00 24.9 9 Sudoeste 22 Sudoeste 0 952.5 -1.5 19
2019-06-12 13:00:00 23.9 8 Sudeste 30 Sudeste 0 953.1 -1.2 20
2019-06-12 12:00:00 22.2 12 Sudeste 31 Este 0 953.7 -0.6 25
2019-06-12 11:00:00 19.4 12 Sudeste 26 Sudeste 0 954 -0.2 39
2019-06-12 10:00:00 16.4 14 Este 21 Este 0 954.3 0.5 44
2019-06-12 09:00:00 13.3 15 Este 24 Este 0 954.3 0.8 48
2019-06-12 08:00:00 10.9 10 Este 16 Este 0 954.2 0.6 42
2019-06-12 07:00:00 9.8 13 Este 19 Este 0 953.8 0 44
2019-06-12 06:00:00 9.6 8 Este 12 Este 0 953.5 -0.7 41
2019-06-12 05:00:00 10.8 9 Este 12 Este 0 953.6 -0.5 38
2019-06-12 04:00:00 12.3 9 Nordeste 15 Norte 0 953.8 -0.5 33
2019-06-12 03:00:00 11.8 10 Norte 16 Norte 0 954.2 -0.2 34
2019-06-12 02:00:00 13.1 6 Este 10 Este 0 954.1 -0.2 31
2019-06-12 01:00:00 14.3 6 Este 12 Este 0 954.3 0.5 29
2019-06-12 00:00:00 16 9 Este 18 Nordeste 0 954.4 1.1 26
2019-06-11 23:00:00 17.4 12 Nordeste 22 Nordeste 0 954.3 1.5 25
2019-06-11 22:00:00 18.6 13 Norte 26 Nordeste 0 953.8 1.3 22
2019-06-11 21:00:00 21.6 16 Norte 32 Noroeste 0 953.3 0.6 17
2019-06-11 20:00:00 22.6 18 Norte 36 Norte 0 952.8 -0.2 16
2019-06-11 19:00:00 23.1 21 Norte 36 Norte 0 952.5 -0.4 17
2019-06-11 18:00:00 23.1 10 Este 33 Norte 0 952.7 -0.4 22
2019-06-11 17:00:00 21.2 19 Nordeste 31 Este 0 953 0.3 27
2019-06-11 16:00:00 22.5 10 Nordeste 33 Norte 0 952.9 0.4 26
2019-06-11 15:00:00 20.2 12 Nordeste 36 Nordeste 0 953.1 1 33
2019-06-11 14:00:00 21 20 Norte 42 Norte 0 952.7 0.7 30
2019-06-11 13:00:00 21.3 22 Norte 44 Norte 0 952.5 0.8 31
2019-06-11 12:00:00 20.2 30 Norte 47 Norte 0 952.1 0.9 35
2019-06-11 11:00:00 19.6 23 Norte 45 Norte 0 952 0.6 38
2019-06-11 10:00:00 18.1 30 Norte 47 Norte 0 951.7 0.5 42
2019-06-11 09:00:00 16.8 25 Norte 44 Norte 0 951.2 0.1 46
2019-06-11 08:00:00 15.3 3 Oeste 10 Sur 0 951.4 0.2 48
2019-06-11 07:00:00 15.5 0 Calma 7 Nordeste 0 951.2 -0.5 47
2019-06-11 06:00:00 16 3 Este 14 Este 0 951.1 -0.9 46
2019-06-11 05:00:00 16.5 6 Este 12 Este 0 951.2 -1.2 39
2019-06-11 04:00:00 17.1 4 Nordeste 6 Sur 0 951.7 -1.1 29
2019-06-11 03:00:00 18.2 6 Nordeste 14 Norte 0 952 -0.8 25
2019-06-11 02:00:00 18.8 9 Norte 19 Norte 0 952.4 -0.3 24
2019-06-11 01:00:00 19.6 14 Norte 23 Norte 0 952.8 0.7 25
2019-06-11 00:00:00 21.5 15 Oeste 27 Oeste 0 952.8 0.7 24
2019-06-10 23:00:00 22.4 18 Oeste 26 Oeste 0 952.7 0.6 24
2019-06-10 22:00:00 23.7 17 Oeste 31 Oeste 0 952.1 -0.4 24
2019-06-10 21:00:00 26.1 20 Oeste 31 Oeste 0 952.1 -1 22
2019-06-10 20:00:00 27.3 21 Oeste 38 Oeste 0 952.1 -1.6 21
2019-06-10 19:00:00 27.8 22 Oeste 33 Oeste 0 952.5 -1.7 19
2019-06-10 18:00:00 28.3 18 Oeste 35 Oeste 0 953.1 -1.7 17
2019-06-10 17:00:00 27.8 18 Oeste 32 Oeste 0 953.7 -1.9 18
2019-06-10 16:00:00 27.3 16 Oeste 44 Oeste 0 954.2 -2 18
2019-06-10 15:00:00 26.8 10 Sudoeste 29 Noroeste 0 954.8 -1.6 21
2019-06-10 14:00:00 25.9 10 Noroeste 28 Noroeste 0 955.6 -1.1 23
2019-06-10 13:00:00 24.6 13 Oeste 32 Noroeste 0 956.2 -0.8 23
2019-06-10 12:00:00 23.5 8 Noroeste 24 Norte 0 956.4 -0.4 29
2019-06-10 11:00:00 21.6 13 Norte 24 Norte 0 956.7 0.1 35
2019-06-10 10:00:00 19.8 12 Oeste 20 Noroeste 0 957 0.4 39
2019-06-10 09:00:00 18.1 3 Oeste 9 Noroeste 0 956.8 0.7 43
2019-06-10 08:00:00 14.5 0 Calma 6 Sudoeste 0 956.6 0.2 52
2019-06-10 07:00:00 14.5 4 Noroeste 9 Noroeste 0 956.6 -0.4 51
2019-06-10 06:00:00 15.3 3 Nordeste 6 Norte 0 956.1 -1 49
2019-06-10 05:00:00 15.7 3 Noroeste 10 Noroeste 0 956.4 -0.5 47
2019-06-10 04:00:00 16.5 5 Oeste 27 Norte 0 957 0.5 44
2019-06-10 03:00:00 17.6 14 Noroeste 22 Noroeste 0 957.1 0.8 41
2019-06-10 02:00:00 18.8 12 Noroeste 26 Norte 0 956.9 0.9 37
2019-06-10 01:00:00 19.2 15 Noroeste 21 Oeste 0 956.5 1.2 32
2019-06-10 00:00:00 20.1 12 Noroeste 25 Oeste 0 956.3 1.6 29
2019-06-09 23:00:00 21.7 14 Oeste 30 Noroeste 0 956 1.7 26
2019-06-09 22:00:00 23 23 Oeste 43 Oeste 0 955.3 1.3 23
2019-06-09 21:00:00 24.9 26 Oeste 43 Oeste 0 954.7 0.6 21
2019-06-09 20:00:00 26.6 25 Oeste 41 Oeste 0 954.3 -0.1 14
2019-06-09 19:00:00 27.2 27 Oeste 43 Oeste 0 954 -0.9 16
2019-06-09 18:00:00 27.8 24 Oeste 45 Oeste 0 954.1 -1.4 14
2019-06-09 17:00:00 27.9 24 Noroeste 40 Noroeste 0 954.4 -1.7 16
2019-06-09 16:00:00 28.1 23 Oeste 42 Noroeste 0 954.9 -1.6 15
2019-06-09 15:00:00 26.9 24 Oeste 42 Oeste 0 955.5 -1.3 20
2019-06-09 14:00:00 26.2 23 Oeste 40 Noroeste 0 956.1 -1 23
2019-06-09 13:00:00 25.4 20 Noroeste 35 Noroeste 0 956.5 -0.7 24
2019-06-09 12:00:00 24.4 15 Noroeste 33 Oeste 0 956.8 -0.4 25
2019-06-09 11:00:00 22.7 12 Noroeste 25 Noroeste 0 957.1 0.1 29
2019-06-09 10:00:00 20.5 14 Noroeste 21 Noroeste 0 957.2 0.4 36
2019-06-09 09:00:00 18.1 6 Oeste 10 Oeste 0 957.2 0.5 41
2019-06-09 08:00:00 15.1 4 Noroeste 5 Oeste 0 957 0.1 44
2019-06-09 07:00:00 14.5 3 Oeste 6 Oeste 0 956.8 0 49
2019-06-09 06:00:00 15.4 3 Sudoeste 8 Noroeste 0 956.7 0 58
2019-06-09 05:00:00 16.3 4 Noroeste 8 Noroeste 0 956.9 0.1 48
2019-06-09 04:00:00 16.6 2 Nordeste 13 Sudeste 0 956.8 -0.2 61
2019-06-09 03:00:00 18.1 9 Este 17 Sudeste 0 956.7 -0.2 56
2019-06-09 02:00:00 19.8 10 Sudeste 19 Este 0 956.8 0.3 51
2019-06-09 01:00:00 20.6 13 Este 19 Sudeste 0 957 1.3 47
2019-06-09 00:00:00 22 11 Este 17 Este 0 956.9 1.6 17
2019-06-08 23:00:00 23.8 7 Oeste 23 Oeste 0 956.5 1.4 15
2019-06-08 22:00:00 24.9 17 Oeste 32 Oeste 0 955.7 0.7 13
2019-06-08 21:00:00 27.3 21 Oeste 34 Oeste 0 955.3 0.2 11
2019-06-08 20:00:00 29.8 19 Oeste 34 Oeste 0 955.1 -0.2 9
2019-06-08 19:00:00 31.4 20 Oeste 37 Oeste 0 955 -1.1 9
2019-06-08 18:00:00 30.8 21 Sur 41 Sur 0 955.1 -1.5 11
2019-06-08 17:00:00 30.3 19 Sur 45 Oeste 0 955.3 -1.8 10
2019-06-08 16:00:00 30.9 18 Sudoeste 38 Oeste 0 956.1 -1.8 11
2019-06-08 15:00:00 29.8 14 Sudoeste 24 Sur 0 956.6 -2 18
2019-06-08 14:00:00 28.8 9 Sudoeste 25 Sudoeste 0 957.1 -2.1 20
2019-06-08 13:00:00 26.9 8 Oeste 19 Este 0 957.9 -1.8 27
2019-06-08 12:00:00 23.4 9 Sudeste 22 Sudeste 0 958.6 -1.4 32
2019-06-08 11:00:00 20 12 Sudeste 20 Este 0 959.2 -0.9 34
2019-06-08 10:00:00 17.1 8 Sudeste 14 Sudeste 0 959.7 -0.2 36
2019-06-08 09:00:00 14.5 7 Sudeste 11 Sur 0 960 0.1 39
2019-06-08 08:00:00 11.8 6 Sudeste 10 Este 0 960.1 0.4 44
2019-06-08 07:00:00 10.1 5 Este 12 Sudeste 0 959.9 -0.1 46
2019-06-08 06:00:00 10.9 3 Sur 5 Este 0 959.9 -0.1 45
2019-06-08 05:00:00 11.6 2 Sur 4 Sudeste 0 959.7 -0.1 45
2019-06-08 04:00:00 13.1 3 Nordeste 11 Nordeste 0 960 0.3 38
2019-06-08 03:00:00 13.6 9 Nordeste 11 Nordeste 0 960 0.5 37
2019-06-08 02:00:00 14.4 4 Norte 10 Norte 0 959.8 0.8 35
2019-06-08 01:00:00 15.2 4 Sudoeste 6 Oeste 0 959.7 1.3 34
2019-06-08 00:00:00 17.3 2 Norte 8 Norte 0 959.5 1.5 26
2019-06-07 23:00:00 18.4 8 Norte 10 Norte 0 959 1.3 25
2019-06-07 22:00:00 19.8 6 Noroeste 17 Oeste 0 958.4 0.9 20
2019-06-07 21:00:00 22.7 13 Noroeste 27 Noroeste 0 958 0.6 16
2019-06-07 20:00:00 23.7 10 Noroeste 21 Noroeste 0 957.7 0.2 15
2019-06-07 19:00:00 23.7 10 Oeste 26 Oeste 0 957.5 0 17
2019-06-07 18:00:00 23.6 12 Oeste 23 Oeste 0 957.4 -0.1 18
2019-06-07 17:00:00 22.9 14 Oeste 30 Noroeste 0 957.5 -0.2 19
2019-06-07 16:00:00 23 6 Sudeste 21 Oeste 0 957.5 0 21
2019-06-07 15:00:00 21.2 11 Oeste 26 Oeste 0 957.5 0.2 25
2019-06-07 14:00:00 19.9 16 Oeste 28 Oeste 0 957.7 0.7 30
2019-06-07 13:00:00 18.4 11 Noroeste 27 Oeste 0 957.5 1 35
2019-06-07 12:00:00 16.5 14 Oeste 29 Oeste 0 957.3 1.3 38
2019-06-07 11:00:00 14.7 17 Oeste 32 Sudoeste 0 957 2.2 47
2019-06-07 10:00:00 13.8 18 Noroeste 35 Noroeste 0 956.5 2.4 52
2019-06-07 09:00:00 12.5 20 Oeste 36 Oeste 0 956 3.3 59
2019-06-07 08:00:00 11.4 26 Oeste 36 Oeste 0 954.8 2.7 67
2019-06-07 07:00:00 11.4 19 Oeste 44 Noroeste 0 954.1 2.6 70
2019-06-07 06:00:00 12.7 29 Oeste 42 Noroeste 0 952.7 2 66
2019-06-07 05:00:00 12.9 20 Noroeste 36 Noroeste 0 952.1 1.8 79
2019-06-07 04:00:00 13.9 31 Oeste 48 Oeste 0 951.5 1.5 72
2019-06-07 03:00:00 16.8 18 Noroeste 36 Oeste 0 950.7 0.9 64
2019-06-07 02:00:00 18.5 26 Sudoeste 46 Oeste 0 950.3 0.9 51
2019-06-07 01:00:00 19.6 20 Oeste 35 Oeste 0 950 1.2 40
2019-06-07 00:00:00 19.5 5 Sudoeste 13 Oeste 0 949.8 1.2 32
2019-06-06 23:00:00 19.7 10 Sudoeste 23 Oeste 0 949.4 0.8 28
2019-06-06 22:00:00 21.4 17 Oeste 38 Oeste 0 948.8 0 24
2019-06-06 21:00:00 23.7 23 Oeste 45 Oeste 0 948.6 -0.8 19
2019-06-06 20:00:00 25 25 Oeste 45 Oeste 0 948.6 -1.3 18
2019-06-06 19:00:00 25.9 24 Oeste 43 Sudoeste 0 948.8 -2 17
2019-06-06 18:00:00 25 28 Oeste 51 Oeste 0 949.4 -2.1 18
2019-06-06 17:00:00 25.1 30 Oeste 51 Oeste 0 949.9 -2.2 15
2019-06-06 16:00:00 25.6 23 Sudoeste 48 Oeste 0 950.8 -1.8 15
2019-06-06 15:00:00 24.7 23 Oeste 39 Oeste 0 951.5 -1.6 16
2019-06-06 14:00:00 23.5 19 Sudoeste 40 Sur 0 952.1 -1.3 16
2019-06-06 13:00:00 21.4 22 Oeste 41 Oeste 0 952.6 -1.2 22
2019-06-06 12:00:00 20.5 23 Oeste 32 Oeste 0 953.1 -1 25
2019-06-06 11:00:00 19.4 8 Sudoeste 24 Sudoeste 0 953.4 -0.7 28
2019-06-06 10:00:00 18.1 8 Sur 17 Sur 0 953.8 -0.4 34
2019-06-06 09:00:00 15.2 3 Sudeste 6 Sudeste 0 954.1 0 41
2019-06-06 08:00:00 11.9 0 Calma 4 Noroeste 0 954.1 -0.1 48
2019-06-06 07:00:00 11.3 2 Oeste 4 Noroeste 0 954.2 -0.1 49
2019-06-06 06:00:00 11.6 2 Oeste 8 Norte 0 954.1 -0.2 48
2019-06-06 05:00:00 11.9 7 Norte 12 Norte 0 954.2 0 47
2019-06-06 04:00:00 13 4 Noroeste 18 Oeste 0 954.3 0.1 44
2019-06-06 03:00:00 14.6 13 Oeste 21 Oeste 0 954.3 0.2 40
2019-06-06 02:00:00 15.7 14 Oeste 28 Oeste 0 954.2 0.4 37
2019-06-06 01:00:00 15.9 11 Oeste 16 Oeste 0 954.2 0.8 33
2019-06-06 00:00:00 16.7 6 Oeste 11 Oeste 0 954.1 1 32
2019-06-05 23:00:00 17.2 7 Oeste 19 Noroeste 0 953.8 1.1 31
2019-06-05 22:00:00 18.5 14 Oeste 31 Oeste 0 953.4 0.8 29
2019-06-05 21:00:00 20.6 19 Oeste 36 Oeste 0 953.1 0.4 25
2019-06-05 20:00:00 22 19 Oeste 41 Oeste 0 952.7 -0.1 24
2019-06-05 19:00:00 22.7 19 Oeste 41 Oeste 0 952.6 -0.5 23
2019-06-05 18:00:00 22.6 20 Oeste 39 Oeste 0 952.7 -0.7 23
2019-06-05 17:00:00 22.6 17 Oeste 41 Oeste 0 952.8 -0.4 22
2019-06-05 16:00:00 22.3 19 Oeste 38 Noroeste 0 953.1 -0.5 23
2019-06-05 15:00:00 21.9 23 Oeste 43 Oeste 0 953.4 -0.1 23
2019-06-05 14:00:00 21.4 16 Noroeste 42 Noroeste 0 953.2 0.1 25
2019-06-05 13:00:00 19.6 17 Noroeste 44 Oeste 0 953.6 0.7 30
2019-06-05 12:00:00 18.1 19 Noroeste 41 Oeste 0 953.5 1.5 31
2019-06-05 11:00:00 17 20 Oeste 36 Oeste 0 953.1 1.8 41
2019-06-05 10:00:00 15.1 24 Oeste 41 Oeste 0 952.9 2.4 50
2019-06-05 09:00:00 13.7 27 Oeste 49 Oeste 0 952 1.9 55
2019-06-05 08:00:00 13.1 21 Oeste 35 Oeste 0 951.3 1.6 57
2019-06-05 07:00:00 12.5 23 Oeste 33 Oeste 0 950.5 0.8 59
2019-06-05 06:00:00 13.2 22 Oeste 38 Noroeste 0 950.1 0.2 56
2019-06-05 05:00:00 14.6 26 Oeste 41 Oeste 0 949.7 -0.2 50
2019-06-05 04:00:00 16.5 19 Oeste 41 Oeste 0 949.7 -0.1 52
2019-06-05 03:00:00 17.3 22 Oeste 38 Noroeste 0 949.9 0.1 55
2019-06-05 02:00:00 17.7 23 Oeste 41 Oeste 0 949.9 0.4 55
2019-06-05 01:00:00 18.8 27 Oeste 41 Noroeste 0 949.8 0.9 54
2019-06-05 00:00:00 20 27 Oeste 43 Oeste 0 949.8 1.1 54
2019-06-04 23:00:00 21.5 26 Oeste 41 Noroeste 0 949.5 0.5 47
2019-06-04 22:00:00 23 21 Oeste 41 Noroeste 0 948.9 0 38
2019-06-04 21:00:00 24.4 26 Noroeste 42 Oeste 0 948.7 -0.2 36
2019-06-04 20:00:00 25.8 24 Oeste 48 Oeste 0 949 -0.5 33
2019-06-04 19:00:00 28.1 22 Oeste 47 Oeste 0 948.9 -1.1 28
2019-06-04 18:00:00 29.4 29 Oeste 55 Noroeste 0 948.9 -1.8 24
2019-06-04 17:00:00 30 29 Oeste 55 Oeste 0 949.5 -1.7 21
2019-06-04 16:00:00 29.8 28 Oeste 47 Sudoeste 0 950 -1.8 25
2019-06-04 15:00:00 29.2 24 Oeste 46 Oeste 0 950.7 -1.5 25
2019-06-04 14:00:00 29 25 Oeste 44 Noroeste 0 951.2 -1.7 24
2019-06-04 13:00:00 28.6 23 Sudoeste 41 Oeste 0 951.8 -1.3 25
2019-06-04 12:00:00 26.6 15 Oeste 28 Oeste 0 952.2 -0.8 36
2019-06-04 11:00:00 24 15 Oeste 31 Noroeste 0 952.9 0.1 47
2019-06-04 10:00:00 22.3 20 Noroeste 31 Oeste 0 953.1 0.5 50
2019-06-04 09:00:00 20.8 15 Noroeste 23 Oeste 0 953 0.6 55
2019-06-04 08:00:00 19.3 3 Oeste 7 Noroeste 0 952.8 0.4 64
2019-06-04 07:00:00 18.8 5 Oeste 21 Oeste 0 952.6 0.1 63
2019-06-04 06:00:00 19.9 12 Oeste 26 Oeste 0 952.4 -0.4 57
2019-06-04 05:00:00 21.1 17 Oeste 28 Oeste 0 952.4 -1 53
2019-06-04 04:00:00 22.2 17 Oeste 27 Oeste 0 952.5 -1.2 47
2019-06-04 03:00:00 23.1 19 Oeste 29 Oeste 0 952.8 -0.9 42
2019-06-04 02:00:00 23.8 18 Oeste 28 Oeste 0 953.4 0.1 32
2019-06-04 01:00:00 25.1 13 Oeste 20 Oeste 0 953.7 0.8 21
2019-06-04 00:00:00 25.6 6 Oeste 16 Oeste 0 953.7 0.5 18
2019-06-03 23:00:00 27 9 Oeste 17 Oeste 0 953.3 0.1 15
2019-06-03 22:00:00 29.1 11 Oeste 22 Oeste 0 952.9 -0.4 15
2019-06-03 21:00:00 32 17 Oeste 35 Sudoeste 0 953.2 -0.5 12
2019-06-03 20:00:00 33.3 20 Sudoeste 44 Oeste 0 953.2 -0.8 13
2019-06-03 19:00:00 34.4 25 Oeste 40 Sur 0 953.3 -1.4 11
2019-06-03 18:00:00 35.3 22 Oeste 44 Oeste 0 953.7 -1.7 12
2019-06-03 17:00:00 35 26 Oeste 45 Oeste 0 954 -1.8 12
2019-06-03 16:00:00 34.2 18 Sudoeste 48 Oeste 0 954.7 -1.9 13
2019-06-03 15:00:00 33.8 19 Oeste 39 Oeste 0 955.4 -1.4 14
2019-06-03 14:00:00 33.5 22 Noroeste 38 Noroeste 0 955.8 -1.1 14
2019-06-03 13:00:00 32.1 22 Oeste 39 Oeste 0 956.6 -0.3 13
2019-06-03 12:00:00 31.3 11 Oeste 24 Oeste 0 956.8 0.1 14
2019-06-03 11:00:00 28.8 5 Oeste 13 Oeste 0 956.9 0.3 22
2019-06-03 10:00:00 26.4 8 Noroeste 13 Oeste 0 956.9 0.6 25
2019-06-03 09:00:00 23.7 3 Sudeste 7 Sudoeste 0 956.7 0.8 31
2019-06-03 08:00:00 20.4 0 Calma 6 Noroeste 0 956.6 0.9 36
2019-06-03 07:00:00 19.9 2 Noroeste 6 Noroeste 0 956.3 0.3 36
2019-06-03 06:00:00 21 4 Noroeste 6 Noroeste 0 955.9 0 34
2019-06-03 05:00:00 21.7 3 Norte 6 Noroeste 0 955.7 -0.5 33
2019-06-03 04:00:00 22.3 3 Sudeste 13 Noroeste 0 956 0 32
2019-06-03 03:00:00 23.2 0 Calma 5 Nordeste 0 955.9 -0.4 31
2019-06-03 02:00:00 24.6 2 Oeste 10 Oeste 0 956.2 0.3 28
2019-06-03 01:00:00 26.6 2 Norte 4 Sudoeste 0 956 0.6 25
2019-06-03 00:00:00 27 3 Sudoeste 5 Noroeste 0 956.3 1.3 24
2019-06-02 23:00:00 27.8 6 Noroeste 15 Noroeste 0 955.9 1.2 23
2019-06-02 22:00:00 29.7 13 Noroeste 31 Noroeste 0 955.4 0.7 20
2019-06-02 21:00:00 31.9 19 Noroeste 30 Noroeste 0 955 -0.2 17
2019-06-02 20:00:00 34.7 8 Oeste 26 Oeste 0 954.7 -0.7 14
2019-06-02 19:00:00 35.9 12 Noroeste 27 Noroeste 0 954.7 -1.4 13
2019-06-02 18:00:00 36.1 11 Oeste 31 Noroeste 0 955.2 -1.5 12
2019-06-02 17:00:00 35.7 16 Oeste 31 Noroeste 0 955.4 -2.2 13
2019-06-02 16:00:00 35.4 18 Oeste 31 Oeste 0 956.1 -2.2 13
2019-06-02 15:00:00 34.6 11 Oeste 21 Noroeste 0 956.7 -2.1 15
2019-06-02 14:00:00 33.2 8 Sur 19 Sur 0 957.6 -1.3 16
2019-06-02 13:00:00 31.6 5 Sudeste 15 Sudeste 0 958.3 -0.7 20
2019-06-02 12:00:00 28.2 9 Sudeste 19 Este 0 958.8 -0.1 22
2019-06-02 11:00:00 25.6 10 Este 18 Este 0 958.9 0.3 26
2019-06-02 10:00:00 22.2 10 Este 22 Este 0 959 1 32
2019-06-02 09:00:00 19.5 15 Este 24 Este 0 958.9 1.1 37
2019-06-02 08:00:00 17.4 15 Este 23 Este 0 958.6 0.8 41
2019-06-02 07:00:00 16.9 11 Este 18 Este 0 958 0.5 41
2019-06-02 06:00:00 18.1 13 Este 22 Este 0 957.8 0.3 39
2019-06-02 05:00:00 19.2 6 Este 20 Este 0 957.8 0.2 33
2019-06-02 04:00:00 21.4 8 Este 17 Este 0 957.5 -0.2 26
2019-06-02 03:00:00 22.8 12 Este 18 Este 0 957.5 0 25
2019-06-02 02:00:00 23.4 7 Este 12 Oeste 0 957.6 0.3 25
2019-06-02 01:00:00 25.6 11 Oeste 22 Oeste 0 957.7 0.9 22
2019-06-02 00:00:00 27.1 6 Sur 20 Sudeste 0 957.5 0.8 20
2019-06-01 23:00:00 27.3 7 Sudeste 13 Sudeste 0 957.3 0.7 18
2019-06-01 22:00:00 29.5 7 Este 9 Este 0 956.8 0.1 13
2019-06-01 21:00:00 33.2 6 Este 14 Este 0 956.7 -0.5 11
2019-06-01 20:00:00 33.8 10 Este 19 Sudeste 0 956.6 -1.1 9
2019-06-01 19:00:00 34.4 8 Sudeste 19 Sudeste 0 956.7 -1.6 12
2019-06-01 18:00:00 34.3 9 Nordeste 29 Nordeste 0 957.2 -1.9 13
2019-06-01 17:00:00 34.6 12 Sudeste 25 Sudeste 0 957.7 -2.2 14
2019-06-01 16:00:00 34.7 10 Noroeste 17 Norte 0 958.3 -2.3 14
2019-06-01 15:00:00 33.2 7 Oeste 17 Oeste 0 959.1 -1.9 15
2019-06-01 14:00:00 31.7 4 Noroeste 13 Sudoeste 0 959.9 -1.4 19
2019-06-01 13:00:00 30 8 Sur 16 Sur 0 960.6 -0.8 21
2019-06-01 12:00:00 27.4 7 Sudeste 18 Este 0 961 -0.3 28
2019-06-01 11:00:00 24.4 12 Este 22 Este 0 961.3 0.2 34
2019-06-01 10:00:00 21.7 12 Este 25 Este 0 961.4 0.8 40
2019-06-01 09:00:00 18.5 17 Este 30 Este 0 961.3 0.9 48
2019-06-01 08:00:00 16.3 17 Este 27 Este 0 961.1 1.1 54
2019-06-01 07:00:00 15.9 18 Este 31 Este 0 960.6 0.6 55
2019-06-01 06:00:00 16.8 15 Este 29 Este 0 960.4 0.8 51
2019-06-01 05:00:00 18.2 16 Este 31 Este 0 960 0.4 46
2019-06-01 04:00:00 20.3 13 Este 27 Este 0 960 0.3 33
2019-06-01 03:00:00 23.1 16 Este 32 Sudeste 0 959.6 -0.2 24
2019-06-01 02:00:00 23.7 9 Este 19 Sur 0 959.6 0.1 22
2019-06-01 01:00:00 24.8 8 Sur 24 Sudeste 0 959.7 0.7 20
2019-06-01 00:00:00 25.4 8 Sudeste 21 Sudeste 0 959.8 0.9 19
2019-05-31 23:00:00 26.4 9 Sudeste 18 Sur 0 959.5 0.6 18
2019-05-31 22:00:00 28.3 9 Sur 18 Sur 0 959 -0.1 18
2019-05-31 21:00:00 31.2 9 Este 16 Este 0 958.9 -0.6 16
2019-05-31 20:00:00 32.5 8 Sudeste 24 Sudeste 0 958.9 -1.1 15
2019-05-31 19:00:00 33 10 Sur 24 Este 0 959.1 -1.5 15
2019-05-31 18:00:00 33 12 Este 22 Sudeste 0 959.5 -1.6 15
2019-05-31 17:00:00 32.5 11 Este 28 Este 0 960 -1.7 15
2019-05-31 16:00:00 32.1 17 Sudeste 28 Este 0 960.6 -1.6 16
2019-05-31 15:00:00 31.8 11 Este 26 Este 0 961.1 -1.4 17
2019-05-31 14:00:00 30.4 13 Sudeste 27 Este 0 961.7 -1.1 19
2019-05-31 13:00:00 29.8 15 Sudeste 31 Este 0 962.2 -0.8 23
2019-05-31 12:00:00 27.6 17 Este 29 Este 0 962.5 -0.4 28
2019-05-31 11:00:00 24.6 17 Este 27 Este 0 962.8 -0.1 34
2019-05-31 10:00:00 21 17 Este 28 Este 0 963 0.5 42
2019-05-31 09:00:00 18.6 17 Este 29 Este 0 962.9 0.7 49
2019-05-31 08:00:00 16.7 13 Sudeste 26 Sudeste 0 962.9 0.8 53
2019-05-31 07:00:00 16.3 11 Este 29 Este 0 962.5 0.4 53
2019-05-31 06:00:00 17.1 16 Este 35 Este 0 962.2 0 47
2019-05-31 05:00:00 17.9 21 Este 32 Este 0 962.1 0 44
2019-05-31 04:00:00 18.9 22 Este 34 Este 0 962.1 0.1 36
2019-05-31 03:00:00 20.3 18 Este 28 Este 0 962.2 0.5 33
2019-05-31 02:00:00 21.1 8 Este 17 Este 0 962.1 0.7 30
2019-05-31 01:00:00 22 11 Este 22 Nordeste 0 962 1.4 29
2019-05-31 00:00:00 24.3 3 Norte 15 Sur 0 961.7 1.2 25
2019-05-30 23:00:00 24.9 4 Sudeste 10 Sudeste 0 961.4 1 21
2019-05-30 22:00:00 27.1 7 Sudeste 14 Sudeste 0 960.6 -0.1 18
2019-05-30 21:00:00 29.7 10 Sudeste 19 Este 0 960.5 -0.6 16
2019-05-30 20:00:00 30.7 12 Este 25 Este 0 960.4 -1.1 15
2019-05-30 19:00:00 31.1 13 Nordeste 26 Este 0 960.7 -1.5 15
2019-05-30 18:00:00 31 11 Este 28 Nordeste 0 961.1 -1.8 16
2019-05-30 17:00:00 30.6 15 Nordeste 27 Nordeste 0 961.5 -2 17
2019-05-30 16:00:00 29.7 15 Este 28 Sur 0 962.2 -1.7 18
2019-05-30 15:00:00 28.1 17 Este 32 Este 0 962.9 -1.4 21
2019-05-30 14:00:00 27 14 Este 40 Sudeste 0 963.5 -1.1 24
2019-05-30 13:00:00 25 15 Este 28 Este 0 963.9 -0.9 26
2019-05-30 12:00:00 23.3 12 Sudeste 28 Sudeste 0 964.3 -0.3 30
2019-05-30 11:00:00 21.1 12 Sudeste 21 Sudeste 0 964.6 0.2 37
2019-05-30 10:00:00 19.1 12 Este 20 Sudeste 0 964.8 0.8 41
2019-05-30 09:00:00 17.2 12 Sudeste 20 Este 0 964.6 1.1 45
2019-05-30 08:00:00 14.4 6 Este 15 Este 0 964.4 0.8 53
2019-05-30 07:00:00 13.7 6 Este 17 Este 0 964 0.5 53
2019-05-30 06:00:00 14.2 13 Este 21 Este 0 963.5 0.1 51
2019-05-30 05:00:00 15.3 6 Este 22 Este 0 963.6 0.3 47
2019-05-30 04:00:00 16.3 11 Este 19 Este 0 963.5 0.5 43
2019-05-30 03:00:00 17.7 10 Este 23 Este 0 963.4 1 38
2019-05-30 02:00:00 19 9 Este 19 Este 0 963.3 1.7 38
2019-05-30 01:00:00 20.5 13 Este 21 Este 0 963 2.5 37
2019-05-30 00:00:00 21.9 6 Nordeste 18 Nordeste 0 962.4 2.3 32
2019-05-29 23:00:00 22.9 10 Nordeste 18 Nordeste 0 961.6 1.9 29
2019-05-29 22:00:00 24 9 Este 15 Este 0 960.5 0.7 26
2019-05-29 21:00:00 27.1 12 Este 22 Norte 0 960.1 0 22
2019-05-29 20:00:00 28.7 8 Nordeste 50 Este 0 959.7 -0.8 20
2019-05-29 19:00:00 28.6 13 Norte 26 Norte 0 959.8 -1.1 20
2019-05-29 18:00:00 28.2 13 Este 27 Este 0 960.1 -1.3 21
2019-05-29 17:00:00 28.1 13 Este 27 Este 0 960.5 -1.4 21
2019-05-29 16:00:00 26.3 12 Este 29 Este 0 960.9 -1.5 23
2019-05-29 15:00:00 25.4 15 Nordeste 30 Norte 0 961.4 -1.2 24
2019-05-29 14:00:00 24.1 17 Nordeste 30 Nordeste 0 961.9 -1 26
2019-05-29 13:00:00 22.3 12 Nordeste 27 Nordeste 0 962.4 -0.7 28
2019-05-29 12:00:00 20.5 15 Nordeste 30 Este 0 962.6 -0.3 32
2019-05-29 11:00:00 18.3 17 Este 37 Este 0 962.9 0.5 37
2019-05-29 10:00:00 16.1 16 Este 32 Este 0 963.1 1.3 42
2019-05-29 09:00:00 14.4 11 Este 23 Este 0 962.9 1.7 45
2019-05-29 08:00:00 12.3 15 Este 22 Este 0 962.4 1.5 50
2019-05-29 07:00:00 11.8 11 Este 19 Este 0 961.8 0.9 52
2019-05-29 06:00:00 12.7 12 Este 23 Este 0 961.2 0.9 49
2019-05-29 05:00:00 13.3 19 Nordeste 32 Nordeste 0 960.9 0.8 47
2019-05-29 04:00:00 14.4 10 Sudeste 27 Este 0 960.9 1.2 45
2019-05-29 03:00:00 15.6 19 Este 36 Este 0 960.3 1 42
2019-05-29 02:00:00 17.1 17 Este 29 Este 0 960.1 1.7 38
2019-05-29 01:00:00 18.2 17 Este 34 Este 0 959.7 2.5 33
2019-05-29 00:00:00 19.4 13 Este 24 Nordeste 0 959.3 3.3 29
2019-05-28 23:00:00 20.5 9 Este 33 Nordeste 0 958.4 3.2 24
2019-05-28 22:00:00 22.3 23 Nordeste 38 Norte 0 957.2 2.4 23
2019-05-28 21:00:00 25.4 26 Norte 41 Nordeste 0 956 1.5 22
2019-05-28 20:00:00 27.3 28 Norte 41 Nordeste 0 955.2 0.7 18
2019-05-28 19:00:00 28.8 24 Norte 40 Norte 0 954.8 0 15
2019-05-28 18:00:00 28.9 26 Norte 44 Norte 0 954.5 -0.6 12
2019-05-28 17:00:00 29 23 Norte 39 Norte 0 954.5 -1.3 14
2019-05-28 16:00:00 29.1 10 Noroeste 30 Noroeste 0 954.8 -1.2 18
2019-05-28 15:00:00 27.9 14 Noroeste 26 Nordeste 0 955.1 -0.8 19
2019-05-28 14:00:00 26.3 17 Norte 30 Norte 0 955.8 0 25
2019-05-28 13:00:00 25.2 12 Nordeste 22 Nordeste 0 956 0 27
2019-05-28 12:00:00 23.9 10 Nordeste 26 Este 0 955.9 0.3 29
2019-05-28 11:00:00 22 7 Este 18 Sudeste 0 955.8 0.6 38
2019-05-28 10:00:00 19.8 9 Este 17 Este 0 956 1.3 45
2019-05-28 09:00:00 17.7 12 Este 17 Este 0 955.6 1.5 52
2019-05-28 08:00:00 14.9 5 Este 12 Este 0 955.2 1.2 61
2019-05-28 07:00:00 14.8 8 Este 23 Nordeste 0 954.7 0.8 61
2019-05-28 06:00:00 15.7 12 Nordeste 21 Este 0 954.1 0.4 57
2019-05-28 05:00:00 16.4 12 Nordeste 17 Nordeste 0 954 0.5 54
2019-05-28 04:00:00 17.3 11 Este 18 Este 0 953.9 0.6 51
2019-05-28 03:00:00 18.8 12 Este 23 Este 0 953.7 0.6 48
2019-05-28 02:00:00 20.3 13 Este 24 Este 0 953.5 1.2 45
2019-05-28 01:00:00 21.6 13 Este 26 Este 0 953.3 1.8 38
2019-05-28 00:00:00 23 12 Este 27 Este 0 953.1 1.9 34
2019-05-27 23:00:00 24.3 13 Nordeste 26 Nordeste 0 952.3 1.6 30
2019-05-27 22:00:00 25.4 16 Norte 30 Norte 0 951.5 0.9 27
2019-05-27 21:00:00 28.1 20 Norte 33 Nordeste 0 951.2 0.3 22
2019-05-27 20:00:00 29.9 19 Norte 32 Norte 0 950.7 -0.5 20
2019-05-27 19:00:00 31.1 10 Noroeste 34 Norte 0 950.6 -1.2 20
2019-05-27 18:00:00 30.4 9 Noroeste 26 Norte 0 950.9 -1.5 22
2019-05-27 17:00:00 31.2 10 Noroeste 31 Nordeste 0 951.2 -1.9 21
2019-05-27 16:00:00 30.8 14 Oeste 37 Noroeste 0 951.8 -2.2 21
2019-05-27 15:00:00 30.3 17 Oeste 30 Noroeste 0 952.4 -2 23
2019-05-27 14:00:00 29.3 14 Oeste 29 Oeste 0 953.1 -1.9 25
2019-05-27 13:00:00 27.6 6 Oeste 20 Norte 0 954 -1.3 27
2019-05-27 12:00:00 25.6 8 Norte 15 Noroeste 0 954.4 -1 30
2019-05-27 11:00:00 23 9 Sudeste 18 Sudeste 0 955 -0.4 34
2019-05-27 10:00:00 20 12 Sudeste 17 Sudeste 0 955.3 0.3 41
2019-05-27 09:00:00 17.1 8 Este 14 Este 0 955.4 0.1 48
2019-05-27 08:00:00 14.1 6 Este 10 Este 0 955.4 0.2 56
2019-05-27 07:00:00 14.1 6 Sudeste 10 Sudeste 0 955 -0.4 56
2019-05-27 06:00:00 14.4 3 Norte 10 Nordeste 0 955.3 -0.4 55
2019-05-27 05:00:00 15.6 3 Oeste 10 Este 0 955.2 -0.6 51
2019-05-27 04:00:00 16.5 7 Este 15 Nordeste 0 955.4 -0.8 47
2019-05-27 03:00:00 17.9 11 Nordeste 14 Nordeste 0 955.7 -0.4 43
2019-05-27 02:00:00 19 6 Este 18 Sudeste 0 955.8 0 39
2019-05-27 01:00:00 20.1 8 Sudeste 23 Norte 0 956.2 1 34
2019-05-27 00:00:00 21.1 19 Norte 30 Norte 0 956.1 1.4 33
2019-05-26 23:00:00 22.6 18 Norte 31 Norte 0 955.8 1.2 30
2019-05-26 22:00:00 24.3 13 Norte 26 Norte 0 955.2 0.3 27
2019-05-26 21:00:00 28.3 5 Nordeste 22 Norte 0 954.7 -0.5 22
2019-05-26 20:00:00 29.1 10 Norte 26 Noroeste 0 954.6 -1.1 21
2019-05-26 19:00:00 29.6 12 Norte 28 Este 0 954.9 -1.3 20
2019-05-26 18:00:00 28.8 14 Nordeste 31 Norte 0 955.2 -1.7 21
2019-05-26 17:00:00 28.3 14 Nordeste 29 Norte 0 955.7 -2.1 21
2019-05-26 16:00:00 28 15 Nordeste 30 Norte 0 956.2 -2.4 22
2019-05-26 15:00:00 26.2 6 Norte 22 Noroeste 0 956.9 -2.3 26
2019-05-26 14:00:00 24.2 9 Noroeste 26 Oeste 0 957.8 -1.9 29
2019-05-26 13:00:00 22.5 6 Noroeste 16 Este 0 958.6 -1.2 31
2019-05-26 12:00:00 20.2 8 Sur 17 Sur 0 959.2 -0.8 39
2019-05-26 11:00:00 18.3 7 Sudeste 16 Sudeste 0 959.7 -0.2 42
2019-05-26 10:00:00 16.7 10 Este 21 Este 0 959.8 0.2 46
2019-05-26 09:00:00 14.9 7 Este 14 Este 0 960 0.7 54
2019-05-26 08:00:00 11.6 10 Norte 13 Norte 0 959.9 0.6 66
2019-05-26 07:00:00 11 11 Norte 14 Nordeste 0 959.6 0.3 67
2019-05-26 06:00:00 12.3 14 Nordeste 19 Nordeste 0 959.3 0.1 62
2019-05-26 05:00:00 13.2 14 Nordeste 23 Nordeste 0 959.3 0.1 60
2019-05-26 04:00:00 13.9 13 Nordeste 21 Nordeste 0 959.3 0.2 57
2019-05-26 03:00:00 15.9 15 Nordeste 23 Nordeste 0 959.2 0.3 50
2019-05-26 02:00:00 17.2 8 Este 15 Este 0 959.2 0.8 46
2019-05-26 01:00:00 18.5 10 Nordeste 21 Norte 0 959.1 1.7 42
2019-05-26 00:00:00 19.3 14 Nordeste 37 Norte 0 958.9 2.3 37
2019-05-25 23:00:00 20.8 26 Norte 36 Norte 0 958.4 2 33
2019-05-25 22:00:00 23.4 7 Este 13 Norte 0 957.4 1 28
2019-05-25 21:00:00 25.8 10 Norte 17 Nordeste 0 956.6 -0.1 23
2019-05-25 20:00:00 26.2 10 Este 26 Este 0 956.4 -0.6 23
2019-05-25 19:00:00 26.3 10 Nordeste 28 Nordeste 0 956.4 -0.9 22
2019-05-25 18:00:00 26.6 13 Nordeste 30 Este 0 956.7 -1.3 23
2019-05-25 17:00:00 26.3 14 Nordeste 36 Este 0 957 -1.5 25
2019-05-25 16:00:00 25.8 17 Nordeste 53 Nordeste 0 957.3 -1.6 25
2019-05-25 15:00:00 24.5 15 Este 36 Nordeste 0 958 -1.2 26
2019-05-25 14:00:00 23.4 16 Este 38 Este 0 958.5 -0.9 30
2019-05-25 13:00:00 21.8 13 Nordeste 43 Este 0 958.9 -0.5 33
2019-05-25 12:00:00 20.4 17 Nordeste 30 Nordeste 0 959.2 0.1 36
2019-05-25 11:00:00 18 6 Noroeste 21 Nordeste 0 959.4 0.4 45
2019-05-25 10:00:00 16.5 9 Norte 21 Nordeste 0 959.4 0.9 50
2019-05-25 09:00:00 15.1 9 Este 14 Este 0 959.1 0.9 54
2019-05-25 08:00:00 11.7 6 Norte 13 Norte 0 959 1.1 65
2019-05-25 07:00:00 10.8 10 Norte 13 Nordeste 0 958.5 0.6 67
2019-05-25 06:00:00 11.4 5 Este 12 Nordeste 0 958.2 0.4 66
2019-05-25 05:00:00 12.5 10 Nordeste 14 Este 0 957.9 0.2 61
2019-05-25 04:00:00 13.4 9 Este 23 Nordeste 0 957.9 0.4 58
2019-05-25 03:00:00 14.4 15 Nordeste 31 Nordeste 0 957.8 0.5 54
2019-05-25 02:00:00 15.4 16 Nordeste 33 Nordeste 0 957.7 1.3 50
2019-05-25 01:00:00 16.8 18 Nordeste 32 Nordeste 0 957.5 2.4 43
2019-05-25 00:00:00 17.7 12 Nordeste 36 Nordeste 0 957.3 3.3 40
2019-05-24 23:00:00 19.3 22 Nordeste 38 Nordeste 0 956.4 3.2 38
2019-05-24 22:00:00 20 22 Norte 43 Norte 0 955.1 2.2 33
2019-05-24 21:00:00 23.4 21 Norte 44 Norte 0 954 1 26
2019-05-24 20:00:00 24.2 14 Nordeste 30 Nordeste 0 953.2 0.3 27
2019-05-24 19:00:00 26.7 14 Nordeste 32 Este 0 952.9 -0.2 25
2019-05-24 18:00:00 26.4 18 Nordeste 39 Nordeste 0 953 -0.2 28
2019-05-24 17:00:00 25.8 19 Nordeste 35 Este 0 952.9 -0.8 29
2019-05-24 16:00:00 25.8 17 Nordeste 32 Este 0 953.1 -1 29
2019-05-24 15:00:00 26.6 14 Nordeste 35 Nordeste 0 953.2 -1.1 30
2019-05-24 14:00:00 25.1 18 Norte 38 Nordeste 0 953.7 -0.8 33
2019-05-24 13:00:00 23.7 16 Nordeste 31 Norte 0 954.1 -0.3 37
2019-05-24 12:00:00 23.4 15 Nordeste 35 Nordeste 0 954.3 0.1 42
2019-05-24 11:00:00 22.6 17 Nordeste 32 Este 0 954.5 0.7 46
2019-05-24 10:00:00 20.3 8 Noroeste 18 Nordeste 0 954.4 0.9 52
2019-05-24 09:00:00 17.9 12 Norte 28 Norte 0 954.2 0.6 57
2019-05-24 08:00:00 17.1 14 Norte 26 Nordeste 0 953.8 0.1 57
2019-05-24 07:00:00 16.9 4 Norte 12 Norte 0 953.5 -0.6 53
2019-05-24 06:00:00 17.4 6 Este 10 Sudeste 0 953.6 -0.7 50
2019-05-24 05:00:00 18 3 Sudeste 7 Sur 0 953.7 -0.6 50
2019-05-24 04:00:00 18.4 3 Sur 8 Oeste 0 954.1 -0.3 49
2019-05-24 03:00:00 18.6 5 Noroeste 11 Oeste 0 954.3 0 43
2019-05-24 02:00:00 18.7 8 Oeste 13 Oeste 0 954.3 -0.4 37
2019-05-24 01:00:00 20.1 5 Sur 15 Noroeste 0 954.4 0.1 34
2019-05-24 00:00:00 21 5 Noroeste 12 Noroeste 0 954.3 0.5 31
2019-05-23 23:00:00 23 8 Oeste 21 Noroeste 0 954.7 1.1 28
2019-05-23 22:00:00 24.7 14 Oeste 32 Noroeste 0 954.3 0.6 24
2019-05-23 21:00:00 27.3 21 Oeste 37 Noroeste 0 953.8 -0.4 21
2019-05-23 20:00:00 28.9 21 Noroeste 40 Oeste 0 953.6 -1 21
2019-05-23 19:00:00 29.6 18 Oeste 41 Oeste 0 953.7 -1.5 22
2019-05-23 18:00:00 30.6 24 Oeste 36 Oeste 0 954.2 -1.5 22
2019-05-23 17:00:00 30.6 19 Oeste 37 Noroeste 0 954.6 -1.9 23
2019-05-23 16:00:00 29.5 20 Oeste 36 Oeste 0 955.2 -2.1 24
2019-05-23 15:00:00 28.4 19 Noroeste 40 Noroeste 0 955.7 -2 27
2019-05-23 14:00:00 29.2 14 Oeste 36 Oeste 0 956.5 -1.1 25
2019-05-23 13:00:00 27.3 18 Oeste 26 Oeste 0 957.3 -0.2 29
2019-05-23 12:00:00 24.8 15 Oeste 23 Oeste 0 957.7 0.3 36
2019-05-23 11:00:00 23.3 10 Oeste 18 Oeste 0 957.6 0.5 40
2019-05-23 10:00:00 21.1 6 Sur 9 Sudoeste 0 957.5 0.7 44
2019-05-23 09:00:00 18.9 4 Sur 6 Sudeste 0 957.4 1.1 46
2019-05-23 08:00:00 15.2 3 Este 6 Sur 0 957.1 0.8 53
2019-05-23 07:00:00 15.8 5 Norte 10 Norte 0 956.8 0.7 47
2019-05-23 06:00:00 16.9 2 Noroeste 4 Sur 0 956.3 0.2 45
2019-05-23 05:00:00 17.7 2 Sudoeste 12 Noroeste 0 956.3 -0.1 43
2019-05-23 04:00:00 19 3 Noroeste 4 Norte 0 956.1 -0.5 40
2019-05-23 03:00:00 19.4 0 Calma 6 Oeste 0 956.1 -0.6 38
2019-05-23 02:00:00 19.9 3 Sudoeste 8 Noroeste 0 956.4 0 37
2019-05-23 01:00:00 20.5 5 Noroeste 7 Oeste 0 956.6 1 36
2019-05-23 00:00:00 21.6 3 Sudoeste 8 Sudoeste 0 956.7 1.4 33
2019-05-22 23:00:00 22.8 5 Oeste 13 Noroeste 0 956.4 1.4 30
2019-05-22 22:00:00 24.5 10 Noroeste 17 Noroeste 0 955.6 0.6 25
2019-05-22 21:00:00 27.6 12 Noroeste 24 Oeste 0 955.3 0.3 21
2019-05-22 20:00:00 28.7 19 Oeste 32 Oeste 0 955 -0.5 20
2019-05-22 19:00:00 28.4 14 Oeste 34 Oeste 0 955 -0.9 20
2019-05-22 18:00:00 30.4 13 Noroeste 29 Noroeste 0 955 -1.5 18
2019-05-22 17:00:00 29.7 13 Noroeste 29 Noroeste 0 955.5 -1.5 19
2019-05-22 16:00:00 29.1 12 Oeste 28 Oeste 0 955.9 -1.6 18
2019-05-22 15:00:00 28.2 8 Este 26 Noroeste 0 956.5 -1.3 20
2019-05-22 14:00:00 27.7 10 Sudoeste 19 Sudoeste 0 957 -0.7 26
2019-05-22 13:00:00 25.3 6 Sur 18 Sur 0 957.5 -0.4 34
2019-05-22 12:00:00 22.9 11 Este 18 Sudeste 0 957.8 0.3 42
2019-05-22 11:00:00 20.4 10 Este 19 Este 0 957.7 0.4 49
2019-05-22 10:00:00 17.9 11 Este 22 Este 0 957.9 1.2 57
2019-05-22 09:00:00 16 11 Este 18 Este 0 957.5 1 64
2019-05-22 08:00:00 13.2 4 Sudeste 15 Este 0 957.3 1 75
2019-05-22 07:00:00 12.6 9 Este 21 Este 0 956.7 0.6 76
2019-05-22 06:00:00 13.9 13 Este 27 Este 0 956.5 1 71
2019-05-22 05:00:00 14.8 17 Este 30 Este 0 956.3 0.7 68
2019-05-22 04:00:00 14.9 6 Sur 22 Norte 0 956.1 0.7 58
2019-05-22 03:00:00 16 4 Nordeste 13 Este 0 955.5 0 48
2019-05-22 02:00:00 17.2 3 Nordeste 10 Este 0 955.6 0.7 40
2019-05-22 01:00:00 19.4 5 Nordeste 7 Sudoeste 0 955.4 1.2 34
2019-05-22 00:00:00 20.9 3 Sur 19 Este 0 955.5 1.8 31